Time;durP1;ratioP1;P1;durP2;ratioP2;P2;SDS_P1;SDS_P2;PMS_P1;PMS_P2;Temp;Humidity;BMP_temperature;BMP_pressure;BME280_temperature;BME280_humidity;BME280_pressure;Samples;Min_cycle;Max_cycle;Signal;HPM_P1;HPM_P2
2023/04/13 00:02:45;;;;;;;0.80;0.80;;;;;;;;;;8329083;28;20040;-73
2023/04/13 00:06:45;;;;;;;1.48;0.60;;;;;;;;;;8346049;28;20029;-73
2023/04/13 00:10:47;;;;;;;2.13;0.80;;;;;;;;;;8348441;28;20016;-73
2023/04/13 00:14:49;;;;;;;1.65;0.80;;;;;;;;;;8349097;28;20085;-73
2023/04/13 00:18:51;;;;;;;5.60;0.75;;;;;;;;;;8345140;28;20071;-73
2023/04/13 00:22:51;;;;;;;2.85;0.98;;;;;;;;;;8345469;28;20100;-72
2023/04/13 00:26:53;;;;;;;2.72;0.80;;;;;;;;;;8328358;28;20783;-73
2023/04/13 00:30:53;;;;;;;3.45;0.70;;;;;;;;;;8327142;28;20761;-73
2023/04/13 00:34:53;;;;;;;1.40;0.75;;;;;;;;;;8345943;28;20899;-73
2023/04/13 00:38:56;;;;;;;2.20;0.90;;;;;;;;;;8325801;28;20032;-73
2023/04/13 00:42:56;;;;;;;0.93;0.73;;;;;;;;;;8345566;28;20043;-73
2023/04/13 00:46:56;;;;;;;4.03;0.73;;;;;;;;;;8348234;28;20045;-73
2023/04/13 00:50:56;;;;;;;4.45;0.90;;;;;;;;;;8344282;28;20033;-73
2023/04/13 00:54:57;;;;;;;3.38;0.75;;;;;;;;;;8328087;28;20016;-73
2023/04/13 00:58:57;;;;;;;4.35;0.80;;;;;;;;;;8346622;28;20123;-73
2023/04/13 01:03:00;;;;;;;2.05;0.90;;;;;;;;;;8347118;28;20029;-73
2023/04/13 01:07:06;;;;;;;1.42;0.80;;;;;;;;;;8344332;28;20823;-73
2023/04/13 01:11:13;;;;;;;2.22;0.90;;;;;;;;;;8336493;28;20484;-73
2023/04/13 01:15:15;;;;;;;3.78;1.10;;;;;;;;;;8341781;28;20108;-73
2023/04/13 01:19:39;;;;;;;3.25;0.98;;;;;;;;;;8344192;28;20020;-73
2023/04/13 01:23:46;;;;;;;6.38;0.98;;;;;;;;;;8318038;28;20044;-73
2023/04/13 01:27:46;;;;;;;2.72;0.95;;;;;;;;;;8322190;28;20048;-73
2023/04/13 01:31:47;;;;;;;3.83;0.90;;;;;;;;;;8342574;28;21126;-73
2023/04/13 01:35:48;;;;;;;2.13;0.82;;;;;;;;;;8343516;28;20012;-73
2023/04/13 01:39:48;;;;;;;4.18;1.20;;;;;;;;;;8345340;28;20469;-73
2023/04/13 01:43:49;;;;;;;3.90;1.00;;;;;;;;;;8328347;28;20059;-73
2023/04/13 01:48:03;;;;;;;5.22;1.17;;;;;;;;;;8344828;28;20170;-73
2023/04/13 01:52:04;;;;;;;8.77;1.55;;;;;;;;;;8350502;28;20034;-73
2023/04/13 01:56:04;;;;;;;2.33;0.77;;;;;;;;;;8353260;28;20032;-73
2023/04/13 02:00:09;;;;;;;2.22;0.80;;;;;;;;;;8350904;28;20024;-73
2023/04/13 02:04:09;;;;;;;3.53;0.90;;;;;;;;;;8352084;28;20041;-73
2023/04/13 02:08:10;;;;;;;2.75;0.80;;;;;;;;;;8348422;28;20479;-73
2023/04/13 02:12:10;;;;;;;3.05;0.90;;;;;;;;;;8350193;28;20025;-73
2023/04/13 02:16:10;;;;;;;5.68;0.80;;;;;;;;;;8340510;28;20032;-73
2023/04/13 02:20:11;;;;;;;3.33;0.80;;;;;;;;;;8350037;28;20021;-73
2023/04/13 02:24:11;;;;;;;3.78;0.95;;;;;;;;;;8333479;28;20775;-72
2023/04/13 02:28:11;;;;;;;2.78;0.95;;;;;;;;;;8352474;28;20110;-73
2023/04/13 02:32:12;;;;;;;1.55;0.82;;;;;;;;;;8350059;28;20329;-72
2023/04/13 02:36:12;;;;;;;3.10;0.90;;;;;;;;;;8350224;28;20036;-72
2023/04/13 02:40:12;;;;;;;2.38;0.80;;;;;;;;;;8348267;28;20029;-73
2023/04/13 02:44:13;;;;;;;3.13;1.00;;;;;;;;;;8351875;28;20031;-73
2023/04/13 02:48:14;;;;;;;2.85;0.98;;;;;;;;;;8333325;28;21096;-72
2023/04/13 02:52:14;;;;;;;3.13;0.90;;;;;;;;;;8348218;28;20020;-72
2023/04/13 02:56:15;;;;;;;4.13;1.48;;;;;;;;;;8336461;28;20055;-73
2023/04/13 03:00:16;;;;;;;2.33;0.88;;;;;;;;;;8347624;28;20032;-73
2023/04/13 03:04:16;;;;;;;2.22;0.90;;;;;;;;;;8347368;28;20438;-72
2023/04/13 03:08:16;;;;;;;5.68;1.00;;;;;;;;;;8347145;28;20028;-73
2023/04/13 03:12:16;;;;;;;6.03;0.95;;;;;;;;;;8349631;28;20024;-72
2023/04/13 03:16:17;;;;;;;6.40;1.10;;;;;;;;;;8354759;28;20910;-73
2023/04/13 03:20:22;;;;;;;3.70;0.90;;;;;;;;;;8349705;28;20012;-72
2023/04/13 03:24:22;;;;;;;2.28;1.10;;;;;;;;;;8349373;28;20021;-72
2023/04/13 03:28:22;;;;;;;3.97;1.30;;;;;;;;;;8348487;28;20035;-72
2023/04/13 03:32:23;;;;;;;7.10;1.17;;;;;;;;;;8349270;28;20039;-72
2023/04/13 03:36:23;;;;;;;4.97;1.13;;;;;;;;;;8346696;28;20073;-72
2023/04/13 03:40:23;;;;;;;5.18;1.27;;;;;;;;;;8331149;28;20033;-73
2023/04/13 03:44:24;;;;;;;1.83;0.95;;;;;;;;;;8332475;28;20028;-72
2023/04/13 03:48:24;;;;;;;3.97;0.90;;;;;;;;;;8352382;28;20075;-72
2023/04/13 03:52:24;;;;;;;3.93;1.10;;;;;;;;;;8348142;28;20550;-73
2023/04/13 03:56:25;;;;;;;6.60;1.42;;;;;;;;;;8348555;28;21233;-72
2023/04/13 04:00:25;;;;;;;3.65;1.00;;;;;;;;;;8350856;28;20454;-73
2023/04/13 04:04:25;;;;;;;4.13;1.13;;;;;;;;;;8350184;28;20028;-72
2023/04/13 04:08:26;;;;;;;2.60;1.17;;;;;;;;;;8346033;28;20036;-72
2023/04/13 04:12:27;;;;;;;5.07;1.50;;;;;;;;;;8346813;28;20103;-73
2023/04/13 04:16:27;;;;;;;4.65;0.95;;;;;;;;;;8349882;28;20043;-72
2023/04/13 04:20:27;;;;;;;4.72;1.13;;;;;;;;;;8346934;28;20023;-72
2023/04/13 04:24:28;;;;;;;1.50;0.90;;;;;;;;;;8346438;28;20056;-72
2023/04/13 04:28:37;;;;;;;3.78;1.15;;;;;;;;;;8345853;28;20110;-72
2023/04/13 04:32:39;;;;;;;7.53;1.33;;;;;;;;;;8347290;28;20029;-72
2023/04/13 04:36:40;;;;;;;5.32;1.30;;;;;;;;;;8346220;28;20032;-72
2023/04/13 04:40:44;;;;;;;9.18;1.40;;;;;;;;;;8327180;28;20127;-72
2023/04/13 04:44:46;;;;;;;4.38;1.58;;;;;;;;;;8346980;28;20044;-72
2023/04/13 04:48:49;;;;;;;9.02;1.50;;;;;;;;;;8345930;28;20120;-72
2023/04/13 04:52:50;;;;;;;4.68;1.38;;;;;;;;;;8346664;28;20020;-72
2023/04/13 04:56:50;;;;;;;7.70;1.45;;;;;;;;;;8347518;28;20483;-72
2023/04/13 05:00:51;;;;;;;8.67;1.30;;;;;;;;;;8323606;28;20036;-72
2023/04/13 05:04:52;;;;;;;6.35;1.35;;;;;;;;;;8315446;28;20274;-73
2023/04/13 05:08:52;;;;;;;4.28;1.42;;;;;;;;;;8345342;28;20140;-72
2023/04/13 05:12:52;;;;;;;7.90;1.67;;;;;;;;;;8325565;28;20155;-72
2023/04/13 05:16:53;;;;;;;9.50;1.33;;;;;;;;;;8343711;28;20028;-73
2023/04/13 05:20:53;;;;;;;8.70;1.42;;;;;;;;;;8342569;28;20016;-72
2023/04/13 05:24:53;;;;;;;6.72;1.35;;;;;;;;;;8346256;28;20097;-72
2023/04/13 05:28:53;;;;;;;9.15;1.48;;;;;;;;;;8352851;28;20135;-72
2023/04/13 05:32:54;;;;;;;7.97;1.70;;;;;;;;;;8354378;28;20040;-73
2023/04/13 05:36:54;;;;;;;4.75;1.60;;;;;;;;;;8340933;28;20063;-72
2023/04/13 05:40:55;;;;;;;7.10;1.42;;;;;;;;;;8345194;28;20034;-72
2023/04/13 05:44:55;;;;;;;8.60;1.60;;;;;;;;;;8345245;28;20024;-73
2023/04/13 05:48:56;;;;;;;7.40;1.52;;;;;;;;;;8323867;28;20051;-73
2023/04/13 05:52:56;;;;;;;6.43;1.38;;;;;;;;;;8346716;28;20474;-73
2023/04/13 05:56:57;;;;;;;8.57;1.55;;;;;;;;;;8346457;28;20154;-72
2023/04/13 06:00:57;;;;;;;7.80;1.80;;;;;;;;;;8342699;28;20033;-72
2023/04/13 06:04:57;;;;;;;13.00;1.65;;;;;;;;;;8344447;28;20485;-72
2023/04/13 06:08:57;;;;;;;5.20;1.35;;;;;;;;;;8343425;28;20637;-72
2023/04/13 06:12:58;;;;;;;5.63;1.50;;;;;;;;;;8345339;28;20154;-72
2023/04/13 06:16:58;;;;;;;7.93;1.70;;;;;;;;;;8342655;28;20275;-72
2023/04/13 06:20:58;;;;;;;5.88;1.80;;;;;;;;;;8341465;28;20020;-71
2023/04/13 06:24:59;;;;;;;14.75;1.55;;;;;;;;;;8335250;28;20743;-72
2023/04/13 06:28:59;;;;;;;8.25;1.52;;;;;;;;;;8323078;28;20127;-72
2023/04/13 06:32:59;;;;;;;5.20;1.45;;;;;;;;;;8351650;28;20134;-73
2023/04/13 06:37:00;;;;;;;6.65;1.58;;;;;;;;;;8331861;28;20031;-72
2023/04/13 06:41:01;;;;;;;7.05;2.13;;;;;;;;;;8342719;28;20922;-72
2023/04/13 06:45:01;;;;;;;5.63;1.70;;;;;;;;;;8333612;28;20079;-72
2023/04/13 06:49:01;;;;;;;5.78;1.20;;;;;;;;;;8349686;28;20094;-72
2023/04/13 06:53:02;;;;;;;5.93;1.42;;;;;;;;;;8351819;28;20123;-71
2023/04/13 06:57:02;;;;;;;8.50;1.55;;;;;;;;;;8332864;28;20036;-71
2023/04/13 07:01:02;;;;;;;6.00;1.50;;;;;;;;;;8351569;28;20075;-71
2023/04/13 07:05:03;;;;;;;2.42;1.20;;;;;;;;;;8351685;28;20939;-71
2023/04/13 07:09:03;;;;;;;7.28;1.73;;;;;;;;;;8346475;28;20024;-71
2023/04/13 07:13:04;;;;;;;5.60;1.30;;;;;;;;;;8351175;28;20024;-72
2023/04/13 07:17:04;;;;;;;7.18;1.90;;;;;;;;;;8331949;28;20071;-72
2023/04/13 07:21:06;;;;;;;4.97;1.60;;;;;;;;;;8332533;28;20031;-72
2023/04/13 07:25:06;;;;;;;3.55;1.20;;;;;;;;;;8349837;28;20074;-71
2023/04/13 07:29:12;;;;;;;5.78;1.30;;;;;;;;;;8343690;28;20025;-72
2023/04/13 07:33:12;;;;;;;8.85;1.73;;;;;;;;;;8349584;28;20032;-72
2023/04/13 07:37:12;;;;;;;6.03;1.70;;;;;;;;;;8349319;28;21007;-72
2023/04/13 07:41:12;;;;;;;7.23;1.70;;;;;;;;;;8349987;28;20062;-72
2023/04/13 07:45:14;;;;;;;6.30;1.90;;;;;;;;;;8349840;28;20277;-72
2023/04/13 07:49:14;;;;;;;6.43;2.00;;;;;;;;;;8345821;28;20050;-72
2023/04/13 07:53:15;;;;;;;6.05;1.65;;;;;;;;;;8332181;28;20029;-72
2023/04/13 07:57:18;;;;;;;3.83;1.60;;;;;;;;;;8347744;28;20103;-72
2023/04/13 08:01:18;;;;;;;6.32;1.40;;;;;;;;;;8324180;28;20164;-72
2023/04/13 08:05:18;;;;;;;6.63;1.40;;;;;;;;;;8348921;28;20374;-72
2023/04/13 08:09:18;;;;;;;4.77;1.53;;;;;;;;;;8344552;28;20663;-73
2023/04/13 08:13:19;;;;;;;5.53;1.70;;;;;;;;;;8346575;28;20581;-72
2023/04/13 08:17:20;;;;;;;6.43;1.70;;;;;;;;;;8349930;28;20217;-73
2023/04/13 08:21:20;;;;;;;7.63;1.38;;;;;;;;;;8330165;28;20767;-72
2023/04/13 08:25:20;;;;;;;4.25;1.40;;;;;;;;;;8348852;28;20086;-72
2023/04/13 08:29:22;;;;;;;4.95;1.38;;;;;;;;;;8346775;28;20574;-72
2023/04/13 08:33:23;;;;;;;3.58;1.40;;;;;;;;;;8348865;28;21106;-72
2023/04/13 08:37:23;;;;;;;3.72;1.50;;;;;;;;;;8330068;28;20024;-72
2023/04/13 08:41:24;;;;;;;5.27;1.30;;;;;;;;;;8330108;28;20126;-72
2023/04/13 08:45:24;;;;;;;5.65;1.50;;;;;;;;;;8318541;28;20385;-72
2023/04/13 08:49:25;;;;;;;4.35;1.40;;;;;;;;;;8347413;28;20025;-72
2023/04/13 08:53:26;;;;;;;2.83;1.10;;;;;;;;;;8343766;28;20759;-72
2023/04/13 08:57:28;;;;;;;4.65;1.65;;;;;;;;;;8331512;28;20907;-72
2023/04/13 09:01:29;;;;;;;2.92;1.50;;;;;;;;;;8352258;28;20931;-72
2023/04/13 09:05:30;;;;;;;2.10;1.27;;;;;;;;;;8352924;28;20021;-72
2023/04/13 09:09:31;;;;;;;2.55;1.33;;;;;;;;;;8351830;28;20032;-72
2023/04/13 09:13:31;;;;;;;2.50;1.05;;;;;;;;;;8335787;28;20482;-72
2023/04/13 09:17:32;;;;;;;4.95;1.27;;;;;;;;;;8350612;28;20121;-72
2023/04/13 09:21:37;;;;;;;4.50;1.38;;;;;;;;;;8334665;28;20020;-72
2023/04/13 09:25:37;;;;;;;6.53;1.42;;;;;;;;;;8353266;28;20657;-72
2023/04/13 09:29:46;;;;;;;3.20;1.30;;;;;;;;;;8350821;28;20027;-72
2023/04/13 09:33:50;;;;;;;3.97;1.13;;;;;;;;;;8324827;28;20071;-73
2023/04/13 09:37:50;;;;;;;;;;;;;;;;;;8351955;28;20048;-72
2023/04/13 09:41:51;;;;;;;2.38;1.20;;;;;;;;;;8350764;28;19919;-73
2023/04/13 09:45:52;;;;;;;2.80;1.20;;;;;;;;;;8352384;28;20163;-73
2023/04/13 09:49:52;;;;;;;5.45;1.40;;;;;;;;;;8351359;28;20397;-73
2023/04/13 09:53:53;;;;;;;5.53;1.50;;;;;;;;;;8352573;28;20624;-73
2023/04/13 09:57:53;;;;;;;5.45;1.27;;;;;;;;;;8350991;28;20027;-72
2023/04/13 10:01:53;;;;;;;4.05;1.40;;;;;;;;;;8349095;28;20033;-72
2023/04/13 10:05:54;;;;;;;3.00;1.38;;;;;;;;;;8349878;28;20016;-72
2023/04/13 10:09:54;;;;;;;6.03;1.65;;;;;;;;;;8347165;28;20028;-72
2023/04/13 10:13:57;;;;;;;5.45;1.70;;;;;;;;;;8352655;28;20043;-72
2023/04/13 10:17:57;;;;;;;6.43;1.60;;;;;;;;;;8358037;28;20043;-72
2023/04/13 10:21:57;;;;;;;7.13;1.70;;;;;;;;;;8356489;28;20016;-72
2023/04/13 10:25:59;;;;;;;7.45;1.70;;;;;;;;;;8358255;28;20030;-72
2023/04/13 10:29:59;;;;;;;9.40;1.90;;;;;;;;;;8336400;28;20024;-72
2023/04/13 10:33:59;;;;;;;4.95;1.30;;;;;;;;;;8356973;28;20031;-72
2023/04/13 10:38:00;;;;;;;7.22;1.65;;;;;;;;;;8355880;28;20119;-72
2023/04/13 10:42:01;;;;;;;3.50;1.45;;;;;;;;;;8357928;28;20024;-72
2023/04/13 10:46:08;;;;;;;4.18;1.98;;;;;;;;;;8356627;28;20043;-72
2023/04/13 10:50:21;;;;;;;5.13;1.80;;;;;;;;;;8357310;28;21033;-72
2023/04/13 10:54:21;;;;;;;4.97;1.40;;;;;;;;;;8356665;28;20020;-72
2023/04/13 10:58:22;;;;;;;5.70;1.30;;;;;;;;;;8337400;28;20032;-72
2023/04/13 11:02:24;;;;;;;5.78;1.35;;;;;;;;;;8352161;28;20036;-72
2023/04/13 11:06:25;;;;;;;4.85;1.80;;;;;;;;;;8352143;28;20119;-73
2023/04/13 11:10:27;;;;;;;4.20;1.67;;;;;;;;;;8352595;28;20032;-73
2023/04/13 11:14:27;;;;;;;5.55;1.70;;;;;;;;;;8352592;28;20744;-73
2023/04/13 11:18:27;;;;;;;3.63;1.63;;;;;;;;;;8337124;28;20175;-73
2023/04/13 11:22:34;;;;;;;5.50;1.83;;;;;;;;;;8351468;28;20052;-73
2023/04/13 11:26:38;;;;;;;8.77;1.90;;;;;;;;;;8351010;28;20840;-73
2023/04/13 11:30:38;;;;;;;3.58;1.45;;;;;;;;;;8349231;28;20079;-73
2023/04/13 11:34:38;;;;;;;7.50;1.60;;;;;;;;;;8348897;28;21012;-73
2023/04/13 11:38:39;;;;;;;5.18;1.50;;;;;;;;;;8352443;28;20032;-73
2023/04/13 11:42:41;;;;;;;5.05;1.52;;;;;;;;;;8321070;28;20012;-72
2023/04/13 11:46:41;;;;;;;5.70;1.77;;;;;;;;;;8347201;28;20131;-73
2023/04/13 11:50:42;;;;;;;5.65;1.75;;;;;;;;;;8351558;28;20048;-73
2023/04/13 11:54:43;;;;;;;3.42;1.50;;;;;;;;;;8350454;28;20031;-73
2023/04/13 11:58:44;;;;;;;3.30;1.50;;;;;;;;;;8332645;28;20135;-73
2023/04/13 12:02:45;;;;;;;3.13;1.42;;;;;;;;;;8346875;28;20076;-73
2023/04/13 12:06:46;;;;;;;4.75;1.50;;;;;;;;;;8332238;28;20027;-73
2023/04/13 12:10:53;;;;;;;7.50;2.05;;;;;;;;;;8348373;28;20024;-73
2023/04/13 12:14:54;;;;;;;6.60;1.52;;;;;;;;;;8346578;28;20082;-73
2023/04/13 12:18:55;;;;;;;4.15;1.40;;;;;;;;;;8329602;28;20036;-73
2023/04/13 12:22:55;;;;;;;4.20;1.27;;;;;;;;;;8347302;28;20132;-73
2023/04/13 12:26:55;;;;;;;4.20;1.20;;;;;;;;;;8323301;28;20106;-73
2023/04/13 12:31:08;;;;;;;2.97;1.20;;;;;;;;;;8347358;28;20036;-73
2023/04/13 12:35:09;;;;;;;2.08;1.00;;;;;;;;;;8346919;28;20820;-73
2023/04/13 12:39:09;;;;;;;2.85;1.23;;;;;;;;;;8348935;28;20205;-73
2023/04/13 12:43:10;;;;;;;3.58;1.38;;;;;;;;;;8346462;28;20131;-73
2023/04/13 12:47:10;;;;;;;3.30;1.33;;;;;;;;;;8348665;28;20051;-73
2023/04/13 12:51:10;;;;;;;3.60;1.53;;;;;;;;;;8326589;28;20035;-73
2023/04/13 12:55:10;;;;;;;4.10;1.27;;;;;;;;;;8331344;28;20550;-73
2023/04/13 12:59:11;;;;;;;4.00;1.30;;;;;;;;;;8344846;28;20094;-72
2023/04/13 13:03:11;;;;;;;4.20;1.55;;;;;;;;;;8329525;28;20059;-72
2023/04/13 13:07:11;;;;;;;3.22;0.93;;;;;;;;;;8347577;28;20035;-72
2023/04/13 13:11:11;;;;;;;4.00;1.25;;;;;;;;;;8344569;28;20028;-73
2023/04/13 13:15:13;;;;;;;1.85;1.15;;;;;;;;;;8342134;28;20099;-72
2023/04/13 13:19:14;;;;;;;3.38;1.20;;;;;;;;;;8346439;28;20131;-73
2023/04/13 13:23:14;;;;;;;4.13;1.77;;;;;;;;;;8342176;28;20059;-72
2023/04/13 13:27:15;;;;;;;2.90;1.10;;;;;;;;;;8350729;28;20028;-73
2023/04/13 13:31:15;;;;;;;5.35;1.40;;;;;;;;;;8343611;28;20048;-73
2023/04/13 13:35:15;;;;;;;4.57;1.10;;;;;;;;;;8342933;28;20116;-73
2023/04/13 13:39:17;;;;;;;2.53;1.20;;;;;;;;;;8346166;28;20021;-73
2023/04/13 13:43:20;;;;;;;5.47;1.20;;;;;;;;;;8346241;28;20681;-73
2023/04/13 13:47:20;;;;;;;6.13;1.58;;;;;;;;;;8332516;28;20237;-72
2023/04/13 13:51:20;;;;;;;5.57;1.80;;;;;;;;;;8332313;28;20106;-73
2023/04/13 13:55:21;;;;;;;6.13;1.92;;;;;;;;;;8350836;28;20366;-73
2023/04/13 13:59:22;;;;;;;7.28;2.05;;;;;;;;;;8349069;28;20067;-73
2023/04/13 14:03:22;;;;;;;7.70;1.73;;;;;;;;;;8349959;28;20041;-73
2023/04/13 14:07:22;;;;;;;5.88;1.63;;;;;;;;;;8345377;28;20078;-73
2023/04/13 14:11:23;;;;;;;6.07;1.88;;;;;;;;;;8341964;28;20016;-73
2023/04/13 14:15:23;;;;;;;7.50;1.60;;;;;;;;;;8324299;28;20040;-73
2023/04/13 14:19:23;;;;;;;6.13;1.60;;;;;;;;;;8344723;28;20017;-73
2023/04/13 14:23:23;;;;;;;5.82;1.73;;;;;;;;;;8346753;28;20031;-73
2023/04/13 14:27:24;;;;;;;4.65;1.40;;;;;;;;;;8346090;28;20020;-74
2023/04/13 14:31:24;;;;;;;5.72;1.35;;;;;;;;;;8345017;28;20041;-73
2023/04/13 14:35:24;;;;;;;5.05;1.35;;;;;;;;;;8344126;28;20872;-73
2023/04/13 14:39:25;;;;;;;8.73;1.77;;;;;;;;;;8347225;28;20032;-75
2023/04/13 14:43:25;;;;;;;6.32;1.98;;;;;;;;;;8348308;28;20020;-73
2023/04/13 14:47:25;;;;;;;7.78;2.00;;;;;;;;;;8345168;28;20163;-74
2023/04/13 14:51:27;;;;;;;7.27;2.10;;;;;;;;;;8346374;28;20082;-74
2023/04/13 14:55:27;;;;;;;8.00;1.67;;;;;;;;;;8325648;28;20366;-73
2023/04/13 14:59:28;;;;;;;4.45;1.80;;;;;;;;;;8345240;28;20118;-73
2023/04/13 15:03:28;;;;;;;7.60;1.90;;;;;;;;;;8341182;28;20028;-73
2023/04/13 15:07:28;;;;;;;8.85;2.20;;;;;;;;;;8342649;28;20034;-74
2023/04/13 15:11:28;;;;;;;7.65;1.70;;;;;;;;;;8344096;28;20097;-74
2023/04/13 15:15:31;;;;;;;6.65;1.85;;;;;;;;;;8344655;28;21171;-73
2023/04/13 15:19:31;;;;;;;6.65;1.42;;;;;;;;;;8345445;28;20028;-73
2023/04/13 15:23:31;;;;;;;6.05;1.38;;;;;;;;;;8343629;28;20016;-74
2023/04/13 15:27:33;;;;;;;2.83;1.40;;;;;;;;;;8325630;28;20028;-74
2023/04/13 15:31:34;;;;;;;5.28;1.45;;;;;;;;;;8343289;28;20109;-73
2023/04/13 15:35:34;;;;;;;2.85;1.40;;;;;;;;;;8342802;28;20024;-74
2023/04/13 15:39:35;;;;;;;4.20;1.40;;;;;;;;;;8339159;28;20024;-74
2023/04/13 15:43:35;;;;;;;3.20;1.40;;;;;;;;;;8346487;28;20024;-74
2023/04/13 15:47:36;;;;;;;6.05;1.52;;;;;;;;;;8343980;28;20037;-73
2023/04/13 15:51:36;;;;;;;6.50;1.63;;;;;;;;;;8343750;28;20013;-73
2023/04/13 15:55:36;;;;;;;5.72;1.55;;;;;;;;;;8345725;28;20071;-73
2023/04/13 15:59:36;;;;;;;7.13;1.52;;;;;;;;;;8317300;28;20016;-73
2023/04/13 16:03:37;;;;;;;5.43;1.70;;;;;;;;;;8347220;28;20087;-73
2023/04/13 16:07:37;;;;;;;6.95;2.08;;;;;;;;;;8344895;28;20060;-73
2023/04/13 16:11:37;;;;;;;5.68;1.58;;;;;;;;;;8344497;28;20024;-73
2023/04/13 16:15:37;;;;;;;4.17;1.60;;;;;;;;;;8331557;28;20042;-74
2023/04/13 16:19:38;;;;;;;5.60;1.73;;;;;;;;;;8350557;28;20081;-73
2023/04/13 16:23:38;;;;;;;5.55;1.60;;;;;;;;;;8343673;28;20020;-73
2023/04/13 16:27:39;;;;;;;4.72;1.50;;;;;;;;;;8348214;28;20039;-74
2023/04/13 16:31:43;;;;;;;6.47;1.75;;;;;;;;;;8351227;28;20202;-73
2023/04/13 16:35:43;;;;;;;5.43;1.52;;;;;;;;;;8350179;28;20143;-73
2023/04/13 16:39:45;;;;;;;5.43;1.70;;;;;;;;;;8349162;28;20550;-73
2023/04/13 16:43:45;;;;;;;5.13;1.40;;;;;;;;;;8351061;28;20592;-73
2023/04/13 16:47:46;;;;;;;2.45;1.10;;;;;;;;;;8349710;28;20033;-73
2023/04/13 16:51:47;;;;;;;5.03;1.55;;;;;;;;;;8350682;28;20809;-73
2023/04/13 16:55:50;;;;;;;3.92;1.60;;;;;;;;;;8349748;28;20746;-73
2023/04/13 16:59:50;;;;;;;6.90;2.35;;;;;;;;;;8349819;28;20024;-73
2023/04/13 17:03:51;;;;;;;7.68;1.58;;;;;;;;;;8350616;28;20119;-74
2023/04/13 17:07:51;;;;;;;6.75;2.50;;;;;;;;;;8350653;28;20016;-74
2023/04/13 17:11:52;;;;;;;7.32;2.55;;;;;;;;;;8344633;28;20039;-73
2023/04/13 17:15:52;;;;;;;5.47;1.77;;;;;;;;;;8348364;28;20040;-74
2023/04/13 17:19:52;;;;;;;3.50;1.25;;;;;;;;;;8350147;28;20284;-73
2023/04/13 17:23:53;;;;;;;6.18;1.70;;;;;;;;;;8357126;28;20040;-73
2023/04/13 17:27:53;;;;;;;5.68;1.48;;;;;;;;;;8351466;28;20017;-73
2023/04/13 17:31:53;;;;;;;4.55;1.45;;;;;;;;;;8353364;28;20796;-73
2023/04/13 17:35:53;;;;;;;5.10;1.40;;;;;;;;;;8337857;28;20028;-73
2023/04/13 17:39:54;;;;;;;3.85;1.33;;;;;;;;;;8343374;28;20064;-73
2023/04/13 17:43:54;;;;;;;3.83;1.27;;;;;;;;;;8355207;28;20063;-74
2023/04/13 17:47:54;;;;;;;4.68;1.30;;;;;;;;;;8354381;28;20325;-73
2023/04/13 17:51:57;;;;;;;4.77;1.40;;;;;;;;;;8355763;28;20020;-73
2023/04/13 17:55:57;;;;;;;5.25;1.25;;;;;;;;;;8355637;28;20994;-73
2023/04/13 17:59:57;;;;;;;4.78;1.40;;;;;;;;;;8355049;28;20031;-73
2023/04/13 18:03:58;;;;;;;3.85;1.58;;;;;;;;;;8354859;28;20025;-74
2023/04/13 18:07:58;;;;;;;11.73;3.78;;;;;;;;;;8353579;28;20482;-73
2023/04/13 18:11:58;;;;;;;4.53;1.92;;;;;;;;;;8342118;28;20109;-73
2023/04/13 18:15:59;;;;;;;3.97;1.58;;;;;;;;;;8351189;28;20048;-74
2023/04/13 18:19:59;;;;;;;5.50;1.90;;;;;;;;;;8354458;28;20626;-73
2023/04/13 18:23:59;;;;;;;5.50;1.85;;;;;;;;;;8353456;28;20017;-73
2023/04/13 18:28:00;;;;;;;7.53;2.97;;;;;;;;;;8352014;28;20032;-73
2023/04/13 18:32:00;;;;;;;9.80;4.18;;;;;;;;;;8351448;28;20781;-73
2023/04/13 18:36:00;;;;;;;6.05;2.88;;;;;;;;;;8334409;28;20032;-74
2023/04/13 18:40:03;;;;;;;8.85;2.28;;;;;;;;;;8348260;28;20151;-73
2023/04/13 18:44:03;;;;;;;7.53;2.10;;;;;;;;;;8353333;28;20029;-73
2023/04/13 18:48:03;;;;;;;7.60;2.13;;;;;;;;;;8351477;28;20047;-73
2023/04/13 18:52:04;;;;;;;5.20;1.90;;;;;;;;;;8352883;28;20267;-73
2023/04/13 18:56:04;;;;;;;4.10;2.10;;;;;;;;;;8353313;28;20304;-73
2023/04/13 19:00:05;;;;;;;6.20;2.00;;;;;;;;;;8332907;28;20029;-74
2023/04/13 19:04:05;;;;;;;3.33;1.65;;;;;;;;;;8350193;28;20727;-73
2023/04/13 19:08:08;;;;;;;8.32;2.28;;;;;;;;;;8350232;28;20035;-73
2023/04/13 19:12:08;;;;;;;6.00;1.90;;;;;;;;;;8356653;28;20021;-73
2023/04/13 19:16:09;;;;;;;9.40;1.70;;;;;;;;;;8352725;28;20512;-73
2023/04/13 19:20:09;;;;;;;4.27;1.53;;;;;;;;;;8348791;28;20067;-73
2023/04/13 19:24:12;;;;;;;5.07;1.60;;;;;;;;;;8349907;28;20444;-73
2023/04/13 19:28:12;;;;;;;2.28;1.42;;;;;;;;;;8348946;28;20027;-73
2023/04/13 19:32:15;;;;;;;5.63;1.95;;;;;;;;;;8351779;28;20045;-73
2023/04/13 19:36:15;;;;;;;5.35;1.85;;;;;;;;;;8343748;28;20033;-73
2023/04/13 19:40:17;;;;;;;3.60;1.40;;;;;;;;;;8350440;28;20063;-73
2023/04/13 19:44:17;;;;;;;6.15;2.17;;;;;;;;;;8346368;28;20048;-73
2023/04/13 19:48:17;;;;;;;6.05;1.90;;;;;;;;;;8349706;28;20587;-73
2023/04/13 19:52:17;;;;;;;4.15;1.92;;;;;;;;;;8350452;28;20100;-73
2023/04/13 19:56:20;;;;;;;5.13;1.93;;;;;;;;;;8347698;28;20027;-73
2023/04/13 20:00:21;;;;;;;4.63;1.92;;;;;;;;;;8348160;28;20576;-73
2023/04/13 20:04:23;;;;;;;5.05;1.65;;;;;;;;;;8330926;28;20017;-73
2023/04/13 20:08:23;;;;;;;3.60;1.70;;;;;;;;;;8330897;28;20961;-73
2023/04/13 20:12:24;;;;;;;4.75;2.28;;;;;;;;;;8348279;28;20020;-73
2023/04/13 20:16:25;;;;;;;4.45;2.30;;;;;;;;;;8326956;28;20044;-73
2023/04/13 20:20:27;;;;;;;5.20;2.58;;;;;;;;;;8348206;28;20545;-72
2023/04/13 20:24:27;;;;;;;5.88;3.08;;;;;;;;;;8348422;28;20511;-73
2023/04/13 20:28:27;;;;;;;5.10;2.45;;;;;;;;;;8349194;28;20044;-73
2023/04/13 20:32:28;;;;;;;6.65;2.42;;;;;;;;;;8349341;28;20054;-73
2023/04/13 20:36:29;;;;;;;4.95;2.40;;;;;;;;;;8348628;28;20031;-72
2023/04/13 20:40:29;;;;;;;6.70;2.05;;;;;;;;;;8349743;28;20036;-73
2023/04/13 20:44:31;;;;;;;7.32;1.88;;;;;;;;;;8332936;28;20032;-73
2023/04/13 20:48:31;;;;;;;3.70;1.50;;;;;;;;;;8332558;28;20044;-73
2023/04/13 20:52:31;;;;;;;3.22;1.60;;;;;;;;;;8338031;28;20074;-72
2023/04/13 20:56:31;;;;;;;4.80;1.30;;;;;;;;;;8334258;28;20058;-73
2023/04/13 21:00:32;;;;;;;2.90;1.42;;;;;;;;;;8348012;28;20036;-72
2023/04/13 21:04:33;;;;;;;5.20;1.40;;;;;;;;;;8326278;28;20608;-72
2023/04/13 21:08:33;;;;;;;4.17;1.40;;;;;;;;;;8331180;28;21131;-72
2023/04/13 21:12:33;;;;;;;2.97;1.20;;;;;;;;;;8347308;28;21325;-72
2023/04/13 21:16:34;;;;;;;2.40;1.20;;;;;;;;;;8349063;28;20143;-72
2023/04/13 21:20:34;;;;;;;3.40;0.95;;;;;;;;;;8326924;28;20278;-72
2023/04/13 21:24:34;;;;;;;2.75;1.40;;;;;;;;;;8346660;28;20863;-72
2023/04/13 21:28:34;;;;;;;2.60;1.30;;;;;;;;;;8325291;28;20027;-72
2023/04/13 21:32:35;;;;;;;4.80;1.20;;;;;;;;;;8344246;28;20086;-73
2023/04/13 21:36:35;;;;;;;4.25;1.50;;;;;;;;;;8326447;28;20029;-72
2023/04/13 21:40:35;;;;;;;4.73;1.87;;;;;;;;;;8340560;28;20033;-73
2023/04/13 21:44:35;;;;;;;3.85;1.80;;;;;;;;;;8345586;28;20282;-73
2023/04/13 21:48:35;;;;;;;3.47;1.77;;;;;;;;;;8343708;28;20092;-73
2023/04/13 21:52:36;;;;;;;4.53;1.80;;;;;;;;;;8347409;28;20027;-73
2023/04/13 21:56:36;;;;;;;6.85;1.60;;;;;;;;;;8329497;28;20059;-73
2023/04/13 22:00:36;;;;;;;2.80;1.50;;;;;;;;;;8326181;28;20555;-73
2023/04/13 22:04:36;;;;;;;4.67;1.53;;;;;;;;;;8344601;28;20393;-72
2023/04/13 22:08:37;;;;;;;3.90;1.10;;;;;;;;;;8348480;28;20270;-72
2023/04/13 22:12:37;;;;;;;5.47;1.63;;;;;;;;;;8354125;28;20036;-72
2023/04/13 22:16:37;;;;;;;3.60;1.63;;;;;;;;;;8352804;28;20496;-72
2023/04/13 22:20:37;;;;;;;4.93;1.48;;;;;;;;;;8352098;28;20756;-72
2023/04/13 22:24:38;;;;;;;4.32;2.05;;;;;;;;;;8351189;28;20726;-72
2023/04/13 22:28:38;;;;;;;3.37;1.57;;;;;;;;;;8350090;28;20111;-72
2023/04/13 22:32:40;;;;;;;6.97;1.48;;;;;;;;;;8333560;28;20340;-72
2023/04/13 22:36:40;;;;;;;4.22;1.60;;;;;;;;;;8352856;28;20024;-72
2023/04/13 22:40:40;;;;;;;3.03;1.30;;;;;;;;;;8351454;28;20050;-73
2023/04/13 22:44:40;;;;;;;9.27;1.92;;;;;;;;;;8352268;28;20035;-72
2023/04/13 22:48:41;;;;;;;6.85;1.63;;;;;;;;;;8350370;28;20040;-72
2023/04/13 22:52:41;;;;;;;3.50;1.33;;;;;;;;;;8350841;28;20024;-72
2023/04/13 22:56:41;;;;;;;2.70;1.38;;;;;;;;;;8350877;28;20056;-72
2023/04/13 23:00:41;;;;;;;4.25;1.27;;;;;;;;;;8351577;28;20075;-72
2023/04/13 23:04:41;;;;;;;5.75;1.58;;;;;;;;;;8349817;28;20622;-72
2023/04/13 23:08:41;;;;;;;4.88;1.17;;;;;;;;;;8350433;28;20028;-71
2023/04/13 23:12:42;;;;;;;5.38;1.77;;;;;;;;;;8349470;28;20766;-72
2023/04/13 23:16:42;;;;;;;2.53;1.00;;;;;;;;;;8350589;28;20036;-71
2023/04/13 23:20:42;;;;;;;4.30;1.30;;;;;;;;;;8350074;28;20127;-72
2023/04/13 23:24:42;;;;;;;3.88;1.30;;;;;;;;;;8349662;28;20022;-71
2023/04/13 23:28:42;;;;;;;5.88;1.38;;;;;;;;;;8329119;28;20025;-72
2023/04/13 23:32:42;;;;;;;4.75;1.73;;;;;;;;;;8348812;28;20068;-72
2023/04/13 23:36:43;;;;;;;4.60;1.42;;;;;;;;;;8351076;28;20071;-72
2023/04/13 23:40:43;;;;;;;2.30;1.40;;;;;;;;;;8350055;28;20082;-71
2023/04/13 23:44:43;;;;;;;2.83;1.00;;;;;;;;;;8349109;28;20028;-71
2023/04/13 23:48:43;;;;;;;4.57;1.38;;;;;;;;;;8346701;28;20838;-71
2023/04/13 23:52:44;;;;;;;3.85;1.20;;;;;;;;;;8352060;28;20020;-71
2023/04/13 23:56:44;;;;;;;3.97;1.52;;;;;;;;;;8349064;28;20716;-71
